Darstellungsparameter: Aktuell verwendete Einstellungen:
Skalierung der Graphiken ... ?
xyx+y,   Skalierungsfaktor:      Skalierung: Modus: x, Faktor: 1
Darstellungszeitraum ... ?
Vom - - bis: - -   Zeitraum: 29.05.2020 - 31.05.2020
Min/Max/Avg-Anzeige ... ?
Zeige MMA aktuell
Zeige MMA Monat
Zeige MMA alles
Zeige --A aktuell
Zeige --A Monat
Zeige --A alles
Keine MMA-Anzeige
MMA:
Minimum Maximum Average (ber die Originaldaten)
MMA-Basis: 14.04.2020 - 16.05.2020
Quicknavigation für Darstellung... ?
Tage:      1T, 2T, 3T, 5T -1T -2T -3T -5T +1T +2T +3T +5T
Wochen: 1W, 2W, 3W -1W -2W -3W +1W +2W +3W
Monate: 1M, 3M, 6M -1M -3M -6M +1M +3M +6M
Jahre:    1J, 3J, 5J, 10J -1J -3J -5J -10J +1J +3J +5J +10J
Nutze für die Darstellung ... ?
Originaldaten oder Mittelwerte auf ...
Stundenbasis Tagesbasis Wochenbasis
Monatsbasis Jahresbasis      Datenbasis: Original-Daten
Darstellen als:
Statistik (Auto) Statistik J:M      Darstellung:
Zur Graphik,    zurück zur Übersicht aller Sensoren.
 
Tabellarische Datenbersicht: ?
 
Sensor: Nr:Datum:Temp:Abs-Feuchte:Windchill:Wind:
Aussen-T/F 1 29-05-2020 00:00:00 12.1 C 6.86 g/m*3 12.1 C 1.6 km/h
2 29-05-2020 00:05:00 12.1 C 6.76 g/m*3 12.1 C 3.2 km/h
3 29-05-2020 00:10:00 11.9 C 6.88 g/m*3 11.9 C 3.2 km/h
4 29-05-2020 00:15:00 11.8 C 6.74 g/m*3 11.8 C 1.6 km/h
5 29-05-2020 00:20:00 11.8 C 6.84 g/m*3 11.8 C 1.6 km/h
6 29-05-2020 00:25:00 11.7 C 6.8 g/m*3 11.7 C 3.2 km/h
7 29-05-2020 00:30:00 11.7 C 6.8 g/m*3 11.7 C 3.2 km/h
8 29-05-2020 00:35:00 11.6 C 6.86 g/m*3 11.6 C 1.6 km/h
9 29-05-2020 00:40:00 11.4 C 6.88 g/m*3 11.4 C 4.8 km/h
10 29-05-2020 00:45:00 11.3 C 6.94 g/m*3 11.3 C 1.6 km/h
11 29-05-2020 00:50:00 11.2 C 6.89 g/m*3 11.2 C 0 km/h
12 29-05-2020 00:55:00 11.1 C 6.85 g/m*3 11.1 C 0 km/h
13 29-05-2020 01:00:00 10.9 C 6.86 g/m*3 10.9 C 1.6 km/h
14 29-05-2020 01:05:00 10.8 C 6.82 g/m*3 10.8 C 0 km/h
15 29-05-2020 01:10:00 10.7 C 6.78 g/m*3 10.7 C 0 km/h
16 29-05-2020 01:15:00 10.6 C 6.83 g/m*3 10.6 C 0 km/h
17 29-05-2020 01:20:00 10.4 C 6.84 g/m*3 10.4 C 0 km/h
18 29-05-2020 01:25:00 10.3 C 6.8 g/m*3 10.3 C 0 km/h
19 29-05-2020 01:30:00 10.2 C 6.76 g/m*3 10.2 C 0 km/h
20 29-05-2020 01:35:00 10.1 C 6.81 g/m*3 10.1 C 0 km/h
21 29-05-2020 01:40:00 10.1 C 6.81 g/m*3 10.1 C 0 km/h
22 29-05-2020 01:45:00 10.1 C 6.81 g/m*3 10.1 C 0 km/h
23 29-05-2020 01:50:00 9.9 C 6.82 g/m*3 9.9 C 0 km/h
24 29-05-2020 01:55:00 9.8 C 6.77 g/m*3 9.8 C 0 km/h
25 29-05-2020 02:00:00 9.7 C 6.82 g/m*3 9.7 C 0 km/h
Sensor: Nr:Datum:Temp:Abs-Feuchte:Windchill:Wind:
Aussen-T/F 26 29-05-2020 02:05:00 9.6 C 6.78 g/m*3 9.6 C 0 km/h
27 29-05-2020 02:10:00 9.5 C 6.74 g/m*3 9.5 C 0 km/h
28 29-05-2020 02:15:00 9.5 C 6.83 g/m*3 9.5 C 0 km/h
29 29-05-2020 02:20:00 9.4 C 6.78 g/m*3 9.4 C 0 km/h
30 29-05-2020 02:25:00 9.3 C 6.74 g/m*3 9.3 C 0 km/h
31 29-05-2020 02:30:00 9.2 C 6.79 g/m*3 9.2 C 0 km/h
32 29-05-2020 02:35:00 9.1 C 6.74 g/m*3 9.1 C 0 km/h
33 29-05-2020 02:40:00 9 C 6.79 g/m*3 9 C 0 km/h
34 29-05-2020 02:45:00 8.9 C 6.75 g/m*3 8.9 C 0 km/h
35 29-05-2020 02:50:00 8.8 C 6.7 g/m*3 8.8 C 0 km/h
36 29-05-2020 02:55:00 8.6 C 6.7 g/m*3 8.6 C 0 km/h
37 29-05-2020 03:00:00 8.6 C 6.7 g/m*3 8.6 C 0 km/h
38 29-05-2020 03:05:00 8.5 C 6.66 g/m*3 8.5 C 0 km/h
39 29-05-2020 03:10:00 8.4 C 6.7 g/m*3 8.4 C 0 km/h
40 29-05-2020 03:15:00 8.3 C 6.66 g/m*3 8.3 C 0 km/h
41 29-05-2020 03:20:00 8.3 C 6.74 g/m*3 8.3 C 0 km/h
42 29-05-2020 03:25:00 8.2 C 6.7 g/m*3 8.2 C 0 km/h
43 29-05-2020 03:30:00 8.1 C 6.66 g/m*3 8.1 C 0 km/h
44 29-05-2020 03:35:00 8 C 6.61 g/m*3 8 C 0 km/h
45 29-05-2020 03:40:00 8 C 6.7 g/m*3 8 C 0 km/h
46 29-05-2020 03:45:00 7.9 C 6.65 g/m*3 7.9 C 0 km/h
47 29-05-2020 03:50:00 7.8 C 6.61 g/m*3 7.8 C 0 km/h
48 29-05-2020 03:55:00 7.8 C 6.61 g/m*3 7.8 C 0 km/h
49 29-05-2020 04:00:00 7.7 C 6.65 g/m*3 7.7 C 0 km/h
50 29-05-2020 04:05:00 7.7 C 6.65 g/m*3 7.7 C 0 km/h
Sensor: Nr:Datum:Temp:Abs-Feuchte:Windchill:Wind:
Aussen-T/F 51 29-05-2020 04:10:00 7.6 C 6.69 g/m*3 7.6 C 0 km/h
52 29-05-2020 04:15:00 7.5 C 6.64 g/m*3 7.5 C 0 km/h
53 29-05-2020 04:20:00 7.4 C 6.6 g/m*3 7.4 C 0 km/h
54 29-05-2020 04:25:00 7.3 C 6.56 g/m*3 7.3 C 0 km/h
55 29-05-2020 04:30:00 7.3 C 6.64 g/m*3 7.3 C 0 km/h
56 29-05-2020 04:35:00 7.3 C 6.64 g/m*3 7.3 C 0 km/h
57 29-05-2020 04:40:00 7.2 C 6.59 g/m*3 7.2 C 0 km/h
58 29-05-2020 04:45:00 7.2 C 6.59 g/m*3 7.2 C 0 km/h
59 29-05-2020 04:50:00 7.1 C 6.63 g/m*3 7.1 C 0 km/h
60 29-05-2020 04:55:00 7.1 C 6.63 g/m*3 7.1 C 0 km/h
61 29-05-2020 05:00:00 7 C 6.59 g/m*3 7 C 0 km/h
62 29-05-2020 05:05:00 6.9 C 6.54 g/m*3 6.9 C 0 km/h
63 29-05-2020 05:10:00 6.9 C 6.62 g/m*3 6.9 C 0 km/h
64 29-05-2020 05:15:00 6.9 C 6.62 g/m*3 6.9 C 0 km/h
65 29-05-2020 05:20:00 6.9 C 6.62 g/m*3 6.9 C 0 km/h
66 29-05-2020 05:25:00 6.8 C 6.58 g/m*3 6.8 C 0 km/h
67 29-05-2020 05:30:00 6.8 C 6.58 g/m*3 6.8 C 0 km/h
68 29-05-2020 05:35:00 6.8 C 6.65 g/m*3 6.8 C 0 km/h
69 29-05-2020 05:40:00 6.7 C 6.61 g/m*3 6.7 C 0 km/h
70 29-05-2020 05:45:00 6.7 C 6.61 g/m*3 6.7 C 0 km/h
71 29-05-2020 05:50:00 6.7 C 6.61 g/m*3 6.7 C 0 km/h
72 29-05-2020 05:55:00 6.7 C 6.69 g/m*3 6.7 C 1.6 km/h
73 29-05-2020 06:00:00 6.7 C 6.69 g/m*3 6.7 C 0 km/h
74 29-05-2020 06:05:00 6.7 C 6.69 g/m*3 6.7 C 0 km/h
75 29-05-2020 06:10:00 6.7 C 6.69 g/m*3 6.7 C 0 km/h
Sensor: Nr:Datum:Temp:Abs-Feuchte:Windchill:Wind:
Aussen-T/F 76 29-05-2020 06:15:00 6.7 C 6.69 g/m*3 6.7 C 0 km/h
77 29-05-2020 06:20:00 6.7 C 6.69 g/m*3 6.7 C 0 km/h
78 29-05-2020 06:25:00 6.7 C 6.69 g/m*3 6.7 C 0 km/h
79 29-05-2020 06:30:00 6.7 C 6.69 g/m*3 6.7 C 0 km/h
80 29-05-2020 06:35:00 6.8 C 6.81 g/m*3 6.8 C 0 km/h
81 29-05-2020 06:40:00 6.8 C 6.81 g/m*3 6.8 C 0 km/h
82 29-05-2020 06:45:00 6.8 C 6.81 g/m*3 6.8 C 0 km/h
83 29-05-2020 06:50:00 6.8 C 6.81 g/m*3 6.8 C 0 km/h
84 29-05-2020 06:55:00 6.9 C 6.85 g/m*3 6.9 C 0 km/h
85 29-05-2020 07:00:00 6.9 C 6.85 g/m*3 6.9 C 0 km/h
86 29-05-2020 07:05:00 7 C 6.97 g/m*3 7 C 0 km/h
87 29-05-2020 07:10:00 7.1 C 7.02 g/m*3 7.1 C 0 km/h
88 29-05-2020 07:15:00 7.1 C 7.02 g/m*3 7.1 C 0 km/h
89 29-05-2020 07:20:00 7.2 C 7.06 g/m*3 7.2 C 0 km/h
90 29-05-2020 07:25:00 7.3 C 7.11 g/m*3 7.3 C 0 km/h
91 29-05-2020 07:30:00 7.3 C 7.11 g/m*3 7.3 C 0 km/h
92 29-05-2020 07:35:00 7.4 C 7.16 g/m*3 7.4 C 0 km/h
93 29-05-2020 07:40:00 7.5 C 7.2 g/m*3 7.5 C 0 km/h
94 29-05-2020 07:45:00 7.6 C 7.25 g/m*3 7.6 C 0 km/h
95 29-05-2020 07:50:00 7.7 C 7.38 g/m*3 7.7 C 0 km/h
96 29-05-2020 07:55:00 7.8 C 7.35 g/m*3 7.8 C 0 km/h
97 29-05-2020 08:00:00 7.9 C 7.39 g/m*3 7.9 C 0 km/h
98 29-05-2020 08:05:00 8.1 C 7.49 g/m*3 8.1 C 0 km/h
99 29-05-2020 08:10:00 8.2 C 7.54 g/m*3 8.2 C 0 km/h
100 29-05-2020 08:15:00 8.3 C 7.59 g/m*3 8.3 C 0 km/h
Sensor: Nr:Datum:Temp:Abs-Feuchte:Windchill:Wind:
Aussen-T/F 101 29-05-2020 08:20:00 8.5 C 7.68 g/m*3 8.5 C 0 km/h
102 29-05-2020 08:25:00 8.7 C 7.78 g/m*3 8.7 C 0 km/h
103 29-05-2020 08:30:00 8.8 C 7.83 g/m*3 8.8 C 0 km/h
104 29-05-2020 08:35:00 8.9 C 7.88 g/m*3 8.9 C 0 km/h
105 29-05-2020 08:40:00 9.2 C 7.95 g/m*3 9.2 C 0 km/h
106 29-05-2020 08:45:00 9.3 C 8 g/m*3 9.3 C 0 km/h
107 29-05-2020 08:50:00 9.5 C 8.1 g/m*3 9.5 C 0 km/h
108 29-05-2020 08:55:00 9.7 C 8.11 g/m*3 9.7 C 0 km/h
109 29-05-2020 09:00:00 9.8 C 8.16 g/m*3 9.8 C 0 km/h
110 29-05-2020 09:05:00 10.1 C 8.23 g/m*3 10.1 C 0 km/h
111 29-05-2020 09:10:00 10.3 C 8.33 g/m*3 10.3 C 0 km/h
112 29-05-2020 09:15:00 10.5 C 8.34 g/m*3 10.5 C 0 km/h
113 29-05-2020 09:20:00 10.8 C 8.5 g/m*3 10.8 C 0 km/h
114 29-05-2020 09:25:00 11.1 C 8.56 g/m*3 11.1 C 0 km/h
115 29-05-2020 09:30:00 11.4 C 8.52 g/m*3 11.4 C 0 km/h
116 29-05-2020 09:35:00 11.7 C 8.58 g/m*3 11.7 C 0 km/h
117 29-05-2020 09:40:00 12 C 8.63 g/m*3 12 C 0 km/h
118 29-05-2020 09:45:00 12.3 C 8.47 g/m*3 12.3 C 1.6 km/h
119 29-05-2020 09:50:00 12.7 C 8.46 g/m*3 12.7 C 1.6 km/h
120 29-05-2020 09:55:00 13.3 C 8.43 g/m*3 13.3 C 4.8 km/h
121 29-05-2020 10:00:00 13.9 C 8.39 g/m*3 13.9 C 4.8 km/h
122 29-05-2020 10:05:00 14.4 C 8.41 g/m*3 14.4 C 6.4 km/h
123 29-05-2020 10:10:00 15 C 8.46 g/m*3 15 C 6.4 km/h
124 29-05-2020 10:15:00 15.5 C 8.46 g/m*3 15.5 C 6.4 km/h
125 29-05-2020 10:20:00 15.9 C 8.8 g/m*3 15.9 C 3.2 km/h
Sensor: Nr:Datum:Temp:Abs-Feuchte:Windchill:Wind:
Aussen-T/F 126 29-05-2020 10:25:00 16.3 C 8.6 g/m*3 16.3 C 6.4 km/h
127 29-05-2020 10:30:00 16.7 C 8.67 g/m*3 16.7 C 4.8 km/h
128 29-05-2020 10:35:00 17.1 C 8.59 g/m*3 17.1 C 6.4 km/h
129 29-05-2020 10:40:00 17.4 C 8.15 g/m*3 17.4 C 8.1 km/h
130 29-05-2020 10:45:00 17.7 C 8.45 g/m*3 17.7 C 9.7 km/h
131 29-05-2020 10:50:00 17.9 C 8.09 g/m*3 17.9 C 14.5 km/h
132 29-05-2020 10:55:00 18.1 C 8.03 g/m*3 18.1 C 6.4 km/h
133 29-05-2020 11:00:00 18.2 C 7.93 g/m*3 18.2 C 11.3 km/h
134 29-05-2020 11:05:00 18.2 C 7.77 g/m*3 18.2 C 9.7 km/h
135 29-05-2020 11:10:00 18.4 C 8.02 g/m*3 18.4 C 6.4 km/h
136 29-05-2020 11:15:00 18.6 C 7.96 g/m*3 18.6 C 12.9 km/h
137 29-05-2020 11:20:00 18.7 C 8.01 g/m*3 18.7 C 11.3 km/h
138 29-05-2020 11:25:00 18.9 C 8.1 g/m*3 18.9 C 8.1 km/h
139 29-05-2020 11:30:00 19.1 C 7.38 g/m*3 19.1 C 14.5 km/h
140 29-05-2020 11:35:00 19.2 C 7.42 g/m*3 19.2 C 16.1 km/h
141 29-05-2020 11:40:00 19.3 C 7.46 g/m*3 19.3 C 16.1 km/h
142 29-05-2020 11:45:00 19.3 C 7.63 g/m*3 19.3 C 11.3 km/h
143 29-05-2020 11:50:00 19.3 C 7.3 g/m*3 19.3 C 17.7 km/h
144 29-05-2020 11:55:00 19.2 C 7.09 g/m*3 19.2 C 20.9 km/h
145 29-05-2020 12:00:00 18.9 C 7.13 g/m*3 18.9 C 14.5 km/h
146 29-05-2020 12:05:00 18.9 C 7.13 g/m*3 18.9 C 9.7 km/h
147 29-05-2020 12:10:00 18.8 C 7.09 g/m*3 18.8 C 6.4 km/h
148 29-05-2020 12:15:00 18.9 C 7.13 g/m*3 18.9 C 14.5 km/h
149 29-05-2020 12:20:00 19.2 C 7.09 g/m*3 19.2 C 12.9 km/h
150 29-05-2020 12:25:00 19.3 C 7.3 g/m*3 19.3 C 12.9 km/h
Sensor: Nr:Datum:Temp:Abs-Feuchte:Windchill:Wind:
Aussen-T/F 151 29-05-2020 12:30:00 19.6 C 7.09 g/m*3 19.6 C 14.5 km/h
152 29-05-2020 12:35:00 19.5 C 6.88 g/m*3 19.5 C 12.9 km/h
153 29-05-2020 12:40:00 19.4 C 6.84 g/m*3 19.4 C 9.7 km/h
154 29-05-2020 12:45:00 19.4 C 7.01 g/m*3 19.4 C 14.5 km/h
155 29-05-2020 12:50:00 19.5 C 6.71 g/m*3 19.5 C 16.1 km/h
156 29-05-2020 12:55:00 19.4 C 6.67 g/m*3 19.4 C 16.1 km/h
157 29-05-2020 13:00:00 19.4 C 6.84 g/m*3 19.4 C 16.1 km/h
158 29-05-2020 13:05:00 19.7 C 6.96 g/m*3 19.7 C 17.7 km/h
159 29-05-2020 13:10:00 19.8 C 7 g/m*3 19.8 C 8.1 km/h
160 29-05-2020 13:15:00 20 C 6.91 g/m*3 20 C 16.1 km/h
161 29-05-2020 13:20:00 20.1 C 6.78 g/m*3 20.1 C 20.9 km/h
162 29-05-2020 13:25:00 20.2 C 6.82 g/m*3 20.2 C 16.1 km/h
163 29-05-2020 13:30:00 20.1 C 6.78 g/m*3 20.1 C 11.3 km/h
164 29-05-2020 13:35:00 20.2 C 6.64 g/m*3 20.2 C 9.7 km/h
165 29-05-2020 13:40:00 20.1 C 6.61 g/m*3 20.1 C 22.5 km/h
166 29-05-2020 13:45:00 20.1 C 6.61 g/m*3 20.1 C 8.1 km/h
167 29-05-2020 13:50:00 20.1 C 6.61 g/m*3 20.1 C 11.3 km/h
168 29-05-2020 13:55:00 20.3 C 6.86 g/m*3 20.3 C 14.5 km/h
169 29-05-2020 14:00:00 20.4 C 6.9 g/m*3 20.4 C 11.3 km/h
170 29-05-2020 14:05:00 20.4 C 6.9 g/m*3 20.4 C 16.1 km/h
171 29-05-2020 14:10:00 20.5 C 7.12 g/m*3 20.5 C 8.1 km/h
172 29-05-2020 14:15:00 20.6 C 6.98 g/m*3 20.6 C 14.5 km/h
173 29-05-2020 14:20:00 20.7 C 6.66 g/m*3 20.7 C 12.9 km/h
174 29-05-2020 14:25:00 20.6 C 7.16 g/m*3 20.6 C 12.9 km/h
175 29-05-2020 14:30:00 20.6 C 6.98 g/m*3 20.6 C 14.5 km/h
Sensor: Nr:Datum:Temp:Abs-Feuchte:Windchill:Wind:
Aussen-T/F 176 29-05-2020 14:35:00 20.8 C 6.88 g/m*3 20.8 C 20.9 km/h
177 29-05-2020 14:40:00 20.9 C 6.92 g/m*3 20.9 C 22.5 km/h
178 29-05-2020 14:45:00 20.9 C 6.92 g/m*3 20.9 C 8.1 km/h
179 29-05-2020 14:50:00 21.1 C 7.19 g/m*3 21.1 C 11.3 km/h
180 29-05-2020 14:55:00 20.9 C 6.92 g/m*3 20.9 C 14.5 km/h
181 29-05-2020 15:00:00 21 C 6.96 g/m*3 21 C 9.7 km/h
182 29-05-2020 15:05:00 21.3 C 7.08 g/m*3 21.3 C 6.4 km/h
183 29-05-2020 15:10:00 21.7 C 7.25 g/m*3 21.7 C 9.7 km/h
184 29-05-2020 15:15:00 21.8 C 7.1 g/m*3 21.8 C 14.5 km/h
185 29-05-2020 15:20:00 21.9 C 7.14 g/m*3 21.9 C 9.7 km/h
186 29-05-2020 15:25:00 22.1 C 7.22 g/m*3 22.1 C 17.7 km/h
187 29-05-2020 15:30:00 22.2 C 7.07 g/m*3 22.2 C 14.5 km/h
188 29-05-2020 15:35:00 22.3 C 6.91 g/m*3 22.3 C 9.7 km/h
189 29-05-2020 15:40:00 22.7 C 7.07 g/m*3 22.7 C 11.3 km/h
190 29-05-2020 15:45:00 23 C 6.99 g/m*3 23 C 19.3 km/h
191 29-05-2020 15:50:00 22.8 C 7.11 g/m*3 22.8 C 14.5 km/h
192 29-05-2020 15:55:00 22.6 C 7.03 g/m*3 22.6 C 9.7 km/h
193 29-05-2020 16:00:00 22.7 C 6.87 g/m*3 22.7 C 9.7 km/h
194 29-05-2020 16:05:00 22.8 C 6.91 g/m*3 22.8 C 14.5 km/h
195 29-05-2020 16:10:00 22.8 C 6.91 g/m*3 22.8 C 14.5 km/h
196 29-05-2020 16:15:00 22.9 C 6.95 g/m*3 22.9 C 11.3 km/h
197 29-05-2020 16:20:00 23.2 C 7.28 g/m*3 23.2 C 9.7 km/h
198 29-05-2020 16:25:00 23.6 C 7.23 g/m*3 23.6 C 12.9 km/h
199 29-05-2020 16:30:00 23.4 C 6.94 g/m*3 23.4 C 14.5 km/h
200 29-05-2020 16:35:00 23.2 C 7.07 g/m*3 23.2 C 9.7 km/h
Sensor: Nr:Datum:Temp:Abs-Feuchte:Windchill:Wind:
Aussen-T/F 201 29-05-2020 16:40:00 23.2 C 7.07 g/m*3 23.2 C 8.1 km/h
202 29-05-2020 16:45:00 23.3 C 6.9 g/m*3 23.3 C 11.3 km/h
203 29-05-2020 16:50:00 23.3 C 6.9 g/m*3 23.3 C 17.7 km/h
204 29-05-2020 16:55:00 22.9 C 6.95 g/m*3 22.9 C 12.9 km/h
205 29-05-2020 17:00:00 22.8 C 7.11 g/m*3 22.8 C 14.5 km/h
206 29-05-2020 17:05:00 22.9 C 7.36 g/m*3 22.9 C 14.5 km/h
207 29-05-2020 17:10:00 23.5 C 7.19 g/m*3 23.5 C 9.7 km/h
208 29-05-2020 17:15:00 23.6 C 7.02 g/m*3 23.6 C 6.4 km/h
209 29-05-2020 17:20:00 23.4 C 7.15 g/m*3 23.4 C 17.7 km/h
210 29-05-2020 17:25:00 23.4 C 7.15 g/m*3 23.4 C 9.7 km/h
211 29-05-2020 17:30:00 23.6 C 7.02 g/m*3 23.6 C 9.7 km/h
212 29-05-2020 17:35:00 23.4 C 6.94 g/m*3 23.4 C 8.1 km/h
213 29-05-2020 17:40:00 23.3 C 6.9 g/m*3 23.3 C 4.8 km/h
214 29-05-2020 17:45:00 23 C 6.78 g/m*3 23 C 4.8 km/h
215 29-05-2020 17:50:00 22.9 C 6.74 g/m*3 22.9 C 9.7 km/h
216 29-05-2020 17:55:00 23.3 C 6.9 g/m*3 23.3 C 6.4 km/h
217 29-05-2020 18:00:00 23.7 C 6.63 g/m*3 23.7 C 12.9 km/h
218 29-05-2020 18:05:00 23.8 C 6.88 g/m*3 23.8 C 9.7 km/h
219 29-05-2020 18:10:00 23.7 C 6.42 g/m*3 23.7 C 16.1 km/h
220 29-05-2020 18:15:00 23.5 C 6.34 g/m*3 23.5 C 14.5 km/h
221 29-05-2020 18:20:00 23.2 C 6.44 g/m*3 23.2 C 24.1 km/h
222 29-05-2020 18:25:00 22.8 C 6.5 g/m*3 22.8 C 24.1 km/h
223 29-05-2020 18:30:00 23.1 C 6.61 g/m*3 23.1 C 16.1 km/h
224 29-05-2020 18:35:00 23.5 C 6.56 g/m*3 23.5 C 8.1 km/h
225 29-05-2020 18:40:00 23.5 C 6.34 g/m*3 23.5 C 8.1 km/h
Sensor: Nr:Datum:Temp:Abs-Feuchte:Windchill:Wind:
Aussen-T/F 226 29-05-2020 18:45:00 23.6 C 6.59 g/m*3 23.6 C 12.9 km/h
227 29-05-2020 18:50:00 23.8 C 6.45 g/m*3 23.8 C 8.1 km/h
228 29-05-2020 18:55:00 23.7 C 6.2 g/m*3 23.7 C 11.3 km/h
229 29-05-2020 19:00:00 23.6 C 6.17 g/m*3 23.6 C 11.3 km/h
230 29-05-2020 19:05:00 23.3 C 6.48 g/m*3 23.3 C 11.3 km/h
231 29-05-2020 19:10:00 23.2 C 6.03 g/m*3 23.2 C 9.7 km/h
232 29-05-2020 19:15:00 23.1 C 5.79 g/m*3 23.1 C 11.3 km/h
233 29-05-2020 19:20:00 22.9 C 5.93 g/m*3 22.9 C 11.3 km/h
234 29-05-2020 19:25:00 22.7 C 5.86 g/m*3 22.7 C 11.3 km/h
235 29-05-2020 19:30:00 22.4 C 5.76 g/m*3 22.4 C 12.9 km/h
236 29-05-2020 19:35:00 22.3 C 5.92 g/m*3 22.3 C 9.7 km/h
237 29-05-2020 19:40:00 22.3 C 5.92 g/m*3 22.3 C 8.1 km/h
238 29-05-2020 19:45:00 22.2 C 5.89 g/m*3 22.2 C 11.3 km/h
239 29-05-2020 19:50:00 22.2 C 5.89 g/m*3 22.2 C 6.4 km/h
240 29-05-2020 19:55:00 22.2 C 5.89 g/m*3 22.2 C 8.1 km/h
241 29-05-2020 20:00:00 21.9 C 5.79 g/m*3 21.9 C 6.4 km/h
242 29-05-2020 20:05:00 21.8 C 5.56 g/m*3 21.8 C 11.3 km/h
243 29-05-2020 20:10:00 21.7 C 5.53 g/m*3 21.7 C 8.1 km/h
244 29-05-2020 20:15:00 21.7 C 5.72 g/m*3 21.7 C 4.8 km/h
245 29-05-2020 20:20:00 21.7 C 5.53 g/m*3 21.7 C 8.1 km/h
246 29-05-2020 20:25:00 21.6 C 5.88 g/m*3 21.6 C 4.8 km/h
247 29-05-2020 20:30:00 21.5 C 5.66 g/m*3 21.5 C 6.4 km/h
248 29-05-2020 20:35:00 21.4 C 5.81 g/m*3 21.4 C 3.2 km/h
249 29-05-2020 20:40:00 21.3 C 5.96 g/m*3 21.3 C 3.2 km/h
250 29-05-2020 20:45:00 21.2 C 6.12 g/m*3 21.2 C 3.2 km/h
Sensor: Nr:Datum:Temp:Abs-Feuchte:Windchill:Wind:
Aussen-T/F 251 29-05-2020 20:50:00 21 C 7.33 g/m*3 21 C 1.6 km/h
252 29-05-2020 20:55:00 20.7 C 7.2 g/m*3 20.7 C 1.6 km/h
253 29-05-2020 21:00:00 20.3 C 7.03 g/m*3 20.3 C 1.6 km/h
254 29-05-2020 21:05:00 19.9 C 7.22 g/m*3 19.9 C 3.2 km/h
255 29-05-2020 21:10:00 19.3 C 7.13 g/m*3 19.3 C 4.8 km/h
256 29-05-2020 21:15:00 18.8 C 7.09 g/m*3 18.8 C 3.2 km/h
257 29-05-2020 21:20:00 18.3 C 6.72 g/m*3 18.3 C 3.2 km/h
258 29-05-2020 21:25:00 17.8 C 6.68 g/m*3 17.8 C 4.8 km/h
259 29-05-2020 21:30:00 17.4 C 6.82 g/m*3 17.4 C 1.6 km/h
260 29-05-2020 21:35:00 16.9 C 6.62 g/m*3 16.9 C 3.2 km/h
261 29-05-2020 21:40:00 16.5 C 6.74 g/m*3 16.5 C 3.2 km/h
262 29-05-2020 21:45:00 16.2 C 6.48 g/m*3 16.2 C 3.2 km/h
263 29-05-2020 21:50:00 15.9 C 6.5 g/m*3 15.9 C 3.2 km/h
264 29-05-2020 21:55:00 15.7 C 6.56 g/m*3 15.7 C 1.6 km/h
265 29-05-2020 22:00:00 15.4 C 6.44 g/m*3 15.4 C 6.4 km/h
266 29-05-2020 22:05:00 15.3 C 6.4 g/m*3 15.3 C 3.2 km/h
267 29-05-2020 22:10:00 15.1 C 6.45 g/m*3 15.1 C 6.4 km/h
268 29-05-2020 22:15:00 14.9 C 6.5 g/m*3 14.9 C 1.6 km/h
269 29-05-2020 22:20:00 14.8 C 6.33 g/m*3 14.8 C 1.6 km/h
270 29-05-2020 22:25:00 14.6 C 6.38 g/m*3 14.6 C 4.8 km/h
271 29-05-2020 22:30:00 14.5 C 6.34 g/m*3 14.5 C 0 km/h
272 29-05-2020 22:35:00 14.4 C 6.3 g/m*3 14.4 C 6.4 km/h
273 29-05-2020 22:40:00 14.3 C 6.51 g/m*3 14.3 C 6.4 km/h
274 29-05-2020 22:45:00 14.2 C 6.23 g/m*3 14.2 C 8.1 km/h
275 29-05-2020 22:50:00 14.2 C 6.23 g/m*3 14.2 C 6.4 km/h
Sensor: Nr:Datum:Temp:Abs-Feuchte:Windchill:Wind:
Aussen-T/F 276 29-05-2020 22:55:00 14.2 C 6.47 g/m*3 14.2 C 8.1 km/h
277 29-05-2020 23:00:00 14.1 C 6.43 g/m*3 14.1 C 4.8 km/h
278 29-05-2020 23:05:00 14 C 6.39 g/m*3 14 C 6.4 km/h
279 29-05-2020 23:10:00 13.9 C 6.47 g/m*3 13.9 C 8.1 km/h
280 29-05-2020 23:15:00 13.9 C 6.59 g/m*3 13.9 C 6.4 km/h
281 29-05-2020 23:20:00 13.8 C 6.67 g/m*3 13.8 C 4.8 km/h
282 29-05-2020 23:25:00 13.7 C 6.75 g/m*3 13.7 C 3.2 km/h
283 29-05-2020 23:30:00 13.6 C 6.71 g/m*3 13.6 C 3.2 km/h
284 29-05-2020 23:35:00 13.4 C 6.63 g/m*3 13.4 C 4.8 km/h
285 29-05-2020 23:40:00 13.3 C 6.82 g/m*3 13.3 C 1.6 km/h
286 29-05-2020 23:45:00 13.3 C 6.7 g/m*3 13.3 C 3.2 km/h
287 29-05-2020 23:50:00 13.2 C 6.89 g/m*3 13.2 C 1.6 km/h
288 29-05-2020 23:55:00 13.2 C 6.89 g/m*3 13.2 C 3.2 km/h
289 30-05-2020 00:00:00 13.3 C 6.82 g/m*3 13.3 C 3.2 km/h
290 30-05-2020 00:05:00 13.3 C 6.93 g/m*3 13.3 C 1.6 km/h
291 30-05-2020 00:10:00 13.3 C 6.82 g/m*3 13.3 C 3.2 km/h
292 30-05-2020 00:15:00 13.3 C 6.82 g/m*3 13.3 C 1.6 km/h
293 30-05-2020 00:20:00 13.3 C 6.93 g/m*3 13.3 C 1.6 km/h
294 30-05-2020 00:25:00 13.2 C 7 g/m*3 13.2 C 1.6 km/h
295 30-05-2020 00:30:00 13.2 C 7 g/m*3 13.2 C 4.8 km/h
296 30-05-2020 00:35:00 13.1 C 7.07 g/m*3 13.1 C 0 km/h
297 30-05-2020 00:40:00 13 C 7.03 g/m*3 13 C 3.2 km/h
298 30-05-2020 00:45:00 12.9 C 6.99 g/m*3 12.9 C 1.6 km/h
299 30-05-2020 00:50:00 12.8 C 6.94 g/m*3 12.8 C 4.8 km/h
300 30-05-2020 00:55:00 12.8 C 6.94 g/m*3 12.8 C 0 km/h
Sensor: Nr:Datum:Temp:Abs-Feuchte:Windchill:Wind:
Aussen-T/F 301 30-05-2020 01:00:00 12.7 C 7.01 g/m*3 12.7 C 0 km/h
302 30-05-2020 01:05:00 12.6 C 6.97 g/m*3 12.6 C 1.6 km/h
303 30-05-2020 01:10:00 12.5 C 6.82 g/m*3 12.5 C 3.2 km/h
304 30-05-2020 01:15:00 12.4 C 6.77 g/m*3 12.4 C 3.2 km/h
305 30-05-2020 01:20:00 12.4 C 6.77 g/m*3 12.4 C 1.6 km/h
306 30-05-2020 01:25:00 12.3 C 6.84 g/m*3 12.3 C 0 km/h
307 30-05-2020 01:30:00 12.3 C 6.73 g/m*3 12.3 C 3.2 km/h
308 30-05-2020 01:35:00 12.3 C 6.95 g/m*3 12.3 C 3.2 km/h
309 30-05-2020 01:40:00 12.2 C 6.91 g/m*3 12.2 C 3.2 km/h
310 30-05-2020 01:45:00 12.1 C 6.86 g/m*3 12.1 C 3.2 km/h
311 30-05-2020 01:50:00 11.9 C 6.78 g/m*3 11.9 C 3.2 km/h
312 30-05-2020 01:55:00 11.8 C 6.84 g/m*3 11.8 C 3.2 km/h
313 30-05-2020 02:00:00 11.7 C 6.8 g/m*3 11.7 C 4.8 km/h
314 30-05-2020 02:05:00 11.6 C 6.76 g/m*3 11.6 C 1.6 km/h
315 30-05-2020 02:10:00 11.4 C 6.77 g/m*3 11.4 C 3.2 km/h
316 30-05-2020 02:15:00 11.4 C 6.77 g/m*3 11.4 C 3.2 km/h
317 30-05-2020 02:20:00 11.3 C 6.83 g/m*3 11.3 C 3.2 km/h
318 30-05-2020 02:25:00 11.3 C 6.83 g/m*3 11.3 C 0 km/h
319 30-05-2020 02:30:00 11.3 C 6.83 g/m*3 11.3 C 0 km/h
320 30-05-2020 02:35:00 11.2 C 6.79 g/m*3 11.2 C 3.2 km/h
321 30-05-2020 02:40:00 11.1 C 6.75 g/m*3 11.1 C 0 km/h
322 30-05-2020 02:45:00 11.1 C 6.85 g/m*3 11.1 C 1.6 km/h
323 30-05-2020 02:50:00 11 C 6.81 g/m*3 11 C 0 km/h
324 30-05-2020 02:55:00 10.9 C 6.76 g/m*3 10.9 C 1.6 km/h
325 30-05-2020 03:00:00 10.9 C 6.76 g/m*3 10.9 C 1.6 km/h
Sensor: Nr:Datum:Temp:Abs-Feuchte:Windchill:Wind:
Aussen-T/F 326 30-05-2020 03:05:00 10.8 C 6.72 g/m*3 10.8 C 1.6 km/h
327 30-05-2020 03:10:00 10.8 C 6.72 g/m*3 10.8 C 3.2 km/h
328 30-05-2020 03:15:00 10.8 C 6.72 g/m*3 10.8 C 1.6 km/h
329 30-05-2020 03:20:00 10.7 C 6.68 g/m*3 10.7 C 3.2 km/h
330 30-05-2020 03:25:00 10.6 C 6.73 g/m*3 10.6 C 3.2 km/h
331 30-05-2020 03:30:00 10.6 C 6.73 g/m*3 10.6 C 3.2 km/h
332 30-05-2020 03:35:00 10.5 C 6.69 g/m*3 10.5 C 1.6 km/h
333 30-05-2020 03:40:00 10.4 C 6.75 g/m*3 10.4 C 3.2 km/h
334 30-05-2020 03:45:00 10.3 C 6.7 g/m*3 10.3 C 3.2 km/h
335 30-05-2020 03:50:00 10.2 C 6.66 g/m*3 10.2 C 3.2 km/h
336 30-05-2020 03:55:00 10.1 C 6.62 g/m*3 10.1 C 3.2 km/h
337 30-05-2020 04:00:00 10.1 C 6.71 g/m*3 10.1 C 3.2 km/h
338 30-05-2020 04:05:00 10 C 6.67 g/m*3 10 C 4.8 km/h
339 30-05-2020 04:10:00 9.9 C 6.63 g/m*3 9.9 C 4.8 km/h
340 30-05-2020 04:15:00 9.8 C 6.68 g/m*3 9.8 C 3.2 km/h
341 30-05-2020 04:20:00 9.8 C 6.68 g/m*3 9.8 C 1.6 km/h
342 30-05-2020 04:25:00 9.7 C 6.64 g/m*3 9.7 C 1.6 km/h
343 30-05-2020 04:30:00 9.6 C 6.69 g/m*3 9.6 C 0 km/h
344 30-05-2020 04:35:00 9.4 C 6.69 g/m*3 9.4 C 0 km/h
345 30-05-2020 04:40:00 9.4 C 6.69 g/m*3 9.4 C 3.2 km/h
346 30-05-2020 04:45:00 9.3 C 6.74 g/m*3 9.3 C 4.8 km/h
347 30-05-2020 04:50:00 9.3 C 6.65 g/m*3 9.3 C 1.6 km/h
348 30-05-2020 04:55:00 9.3 C 6.74 g/m*3 9.3 C 0 km/h
349 30-05-2020 05:00:00 9.2 C 6.7 g/m*3 9.2 C 0 km/h
350 30-05-2020 05:05:00 9.1 C 6.74 g/m*3 9.1 C 0 km/h
Sensor: Nr:Datum:Temp:Abs-Feuchte:Windchill:Wind:
Aussen-T/F 351 30-05-2020 05:10:00 8.9 C 6.66 g/m*3 8.9 C 0 km/h
352 30-05-2020 05:15:00 8.9 C 6.66 g/m*3 8.9 C 0 km/h
353 30-05-2020 05:20:00 8.8 C 6.7 g/m*3 8.8 C 0 km/h
354 30-05-2020 05:25:00 8.7 C 6.66 g/m*3 8.7 C 0 km/h
355 30-05-2020 05:30:00 8.6 C 6.62 g/m*3 8.6 C 0 km/h
356 30-05-2020 05:35:00 8.6 C 6.7 g/m*3 8.6 C 0 km/h
357 30-05-2020 05:40:00 8.4 C 6.7 g/m*3 8.4 C 0 km/h
358 30-05-2020 05:45:00 8.4 C 6.7 g/m*3 8.4 C 0 km/h
359 30-05-2020 05:50:00 8.3 C 6.74 g/m*3 8.3 C 0 km/h
360 30-05-2020 05:55:00 8.2 C 6.7 g/m*3 8.2 C 0 km/h
361 30-05-2020 06:00:00 8.2 C 6.78 g/m*3 8.2 C 0 km/h
362 30-05-2020 06:05:00 8.1 C 6.74 g/m*3 8.1 C 0 km/h
363 30-05-2020 06:10:00 8.1 C 6.74 g/m*3 8.1 C 0 km/h
364 30-05-2020 06:15:00 8.1 C 6.82 g/m*3 8.1 C 0 km/h
365 30-05-2020 06:20:00 8 C 6.78 g/m*3 8 C 0 km/h
366 30-05-2020 06:25:00 8 C 6.78 g/m*3 8 C 0 km/h
367 30-05-2020 06:30:00 8 C 6.86 g/m*3 8 C 0 km/h
368 30-05-2020 06:35:00 8.1 C 6.91 g/m*3 8.1 C 0 km/h
369 30-05-2020 06:40:00 8.1 C 6.99 g/m*3 8.1 C 0 km/h
370 30-05-2020 06:45:00 8.2 C 7.03 g/m*3 8.2 C 0 km/h
371 30-05-2020 06:50:00 8.2 C 7.03 g/m*3 8.2 C 0 km/h
372 30-05-2020 06:55:00 8.3 C 7.16 g/m*3 8.3 C 0 km/h
373 30-05-2020 07:00:00 8.3 C 7.08 g/m*3 8.3 C 0 km/h
374 30-05-2020 07:05:00 8.3 C 7.16 g/m*3 8.3 C 0 km/h
375 30-05-2020 07:10:00 8.4 C 7.21 g/m*3 8.4 C 0 km/h
Sensor: Nr:Datum:Temp:Abs-Feuchte:Windchill:Wind:
Aussen-T/F 376 30-05-2020 07:15:00 8.4 C 7.21 g/m*3 8.4 C 0 km/h
377 30-05-2020 07:20:00 8.5 C 7.26 g/m*3 8.5 C 0 km/h
378 30-05-2020 07:25:00 8.6 C 7.3 g/m*3 8.6 C 0 km/h
379 30-05-2020 07:30:00 8.6 C 7.3 g/m*3 8.6 C 0 km/h
380 30-05-2020 07:35:00 8.7 C 7.44 g/m*3 8.7 C 0 km/h
381 30-05-2020 07:40:00 8.8 C 7.49 g/m*3 8.8 C 0 km/h
382 30-05-2020 07:45:00 8.8 C 7.49 g/m*3 8.8 C 0 km/h
383 30-05-2020 07:50:00 8.9 C 7.53 g/m*3 8.9 C 0 km/h
384 30-05-2020 07:55:00 9.1 C 7.63 g/m*3 9.1 C 0 km/h
385 30-05-2020 08:00:00 9.2 C 7.68 g/m*3 9.2 C 0 km/h
386 30-05-2020 08:05:00 9.3 C 7.73 g/m*3 9.3 C 1.6 km/h
387 30-05-2020 08:10:00 9.5 C 7.83 g/m*3 9.5 C 0 km/h
388 30-05-2020 08:15:00 9.7 C 7.84 g/m*3 9.7 C 0 km/h
389 30-05-2020 08:20:00 9.8 C 7.89 g/m*3 9.8 C 0 km/h
390 30-05-2020 08:25:00 10.1 C 7.94 g/m*3 10.1 C 0 km/h
391 30-05-2020 08:30:00 10.2 C 7.99 g/m*3 10.2 C 0 km/h
392 30-05-2020 08:35:00 10.4 C 8 g/m*3 10.4 C 0 km/h
393 30-05-2020 08:40:00 10.7 C 8.15 g/m*3 10.7 C 0 km/h
394 30-05-2020 08:45:00 10.8 C 8.11 g/m*3 10.8 C 0 km/h
395 30-05-2020 08:50:00 11.1 C 8.26 g/m*3 11.1 C 0 km/h
396 30-05-2020 08:55:00 11.3 C 8.26 g/m*3 11.3 C 0 km/h
397 30-05-2020 09:00:00 11.4 C 8.31 g/m*3 11.4 C 0 km/h
398 30-05-2020 09:05:00 11.7 C 8.37 g/m*3 11.7 C 0 km/h
399 30-05-2020 09:10:00 11.9 C 8.47 g/m*3 11.9 C 0 km/h
400 30-05-2020 09:15:00 12.1 C 8.47 g/m*3 12.1 C 0 km/h
Sensor: Nr:Datum:Temp:Abs-Feuchte:Windchill:Wind:
Aussen-T/F 401 30-05-2020 09:20:00 12.3 C 8.47 g/m*3 12.3 C 0 km/h
402 30-05-2020 09:25:00 12.6 C 8.52 g/m*3 12.6 C 0 km/h
403 30-05-2020 09:30:00 12.9 C 8.45 g/m*3 12.9 C 0 km/h
404 30-05-2020 09:35:00 13.2 C 8.61 g/m*3 13.2 C 8.1 km/h
405 30-05-2020 09:40:00 14.2 C 8.3 g/m*3 14.2 C 8.1 km/h
406 30-05-2020 09:45:00 15 C 7.95 g/m*3 15 C 6.4 km/h
407 30-05-2020 09:50:00 15.7 C 8.16 g/m*3 15.7 C 9.7 km/h
408 30-05-2020 09:55:00 16.2 C 7.72 g/m*3 16.2 C 8.1 km/h
409 30-05-2020 10:00:00 16.7 C 7.96 g/m*3 16.7 C 9.7 km/h
410 30-05-2020 10:05:00 17.1 C 7.86 g/m*3 17.1 C 11.3 km/h
411 30-05-2020 10:10:00 17.5 C 7.75 g/m*3 17.5 C 12.9 km/h
412 30-05-2020 10:15:00 17.8 C 7.74 g/m*3 17.8 C 9.7 km/h
413 30-05-2020 10:20:00 18 C 7.68 g/m*3 18 C 9.7 km/h
414 30-05-2020 10:25:00 18.2 C 7.62 g/m*3 18.2 C 9.7 km/h
415 30-05-2020 10:30:00 18.4 C 7.86 g/m*3 18.4 C 11.3 km/h
416 30-05-2020 10:35:00 18.7 C 7.68 g/m*3 18.7 C 6.4 km/h
417 30-05-2020 10:40:00 18.8 C 8.21 g/m*3 18.8 C 9.7 km/h
418 30-05-2020 10:45:00 19.1 C 7.87 g/m*3 19.1 C 8.1 km/h
419 30-05-2020 10:50:00 19.2 C 7.59 g/m*3 19.2 C 8.1 km/h
420 30-05-2020 10:55:00 19.4 C 7.67 g/m*3 19.4 C 11.3 km/h
421 30-05-2020 11:00:00 19.4 C 8.01 g/m*3 19.4 C 9.7 km/h
422 30-05-2020 11:05:00 19.4 C 7.01 g/m*3 19.4 C 22.5 km/h
423 30-05-2020 11:10:00 19.2 C 6.6 g/m*3 19.2 C 30.6 km/h
424 30-05-2020 11:15:00 19.1 C 6.72 g/m*3 19.1 C 22.5 km/h
425 30-05-2020 11:20:00 19.2 C 6.6 g/m*3 19.2 C 20.9 km/h
Sensor: Nr:Datum:Temp:Abs-Feuchte:Windchill:Wind:
Aussen-T/F 426 30-05-2020 11:25:00 19.2 C 6.43 g/m*3 19.2 C 17.7 km/h
427 30-05-2020 11:30:00 19.3 C 6.47 g/m*3 19.3 C 22.5 km/h
428 30-05-2020 11:35:00 19.3 C 6.63 g/m*3 19.3 C 19.3 km/h
429 30-05-2020 11:40:00 19.4 C 6.84 g/m*3 19.4 C 17.7 km/h
430 30-05-2020 11:45:00 19.4 C 6.51 g/m*3 19.4 C 22.5 km/h
431 30-05-2020 11:50:00 19.5 C 6.88 g/m*3 19.5 C 22.5 km/h
432 30-05-2020 11:55:00 19.5 C 6.71 g/m*3 19.5 C 14.5 km/h
433 30-05-2020 12:00:00 19.5 C 6.88 g/m*3 19.5 C 9.7 km/h
434 30-05-2020 12:05:00 19.6 C 6.92 g/m*3 19.6 C 19.3 km/h
435 30-05-2020 12:10:00 19.7 C 6.79 g/m*3 19.7 C 14.5 km/h
436 30-05-2020 12:15:00 19.6 C 6.75 g/m*3 19.6 C 16.1 km/h
437 30-05-2020 12:20:00 19.6 C 6.92 g/m*3 19.6 C 11.3 km/h
438 30-05-2020 12:25:00 19.7 C 6.62 g/m*3 19.7 C 11.3 km/h
439 30-05-2020 12:30:00 19.8 C 6.66 g/m*3 19.8 C 19.3 km/h
440 30-05-2020 12:35:00 19.8 C 6.49 g/m*3 19.8 C 20.9 km/h
441 30-05-2020 12:40:00 19.7 C 6.79 g/m*3 19.7 C 14.5 km/h
442 30-05-2020 12:45:00 19.7 C 6.96 g/m*3 19.7 C 20.9 km/h
443 30-05-2020 12:50:00 19.8 C 7 g/m*3 19.8 C 12.9 km/h
444 30-05-2020 12:55:00 20.1 C 6.95 g/m*3 20.1 C 17.7 km/h
445 30-05-2020 13:00:00 20.2 C 7.17 g/m*3 20.2 C 17.7 km/h
446 30-05-2020 13:05:00 20.1 C 7.13 g/m*3 20.1 C 14.5 km/h
447 30-05-2020 13:10:00 20 C 6.91 g/m*3 20 C 25.7 km/h
448 30-05-2020 13:15:00 19.9 C 7.04 g/m*3 19.9 C 19.3 km/h
449 30-05-2020 13:20:00 20.1 C 6.78 g/m*3 20.1 C 22.5 km/h
450 30-05-2020 13:25:00 20.2 C 6.99 g/m*3 20.2 C 16.1 km/h
Sensor: Nr:Datum:Temp:Abs-Feuchte:Windchill:Wind:
Aussen-T/F 451 30-05-2020 13:30:00 20.3 C 6.86 g/m*3 20.3 C 22.5 km/h
452 30-05-2020 13:35:00 20.6 C 6.8 g/m*3 20.6 C 22.5 km/h
453 30-05-2020 13:40:00 20.6 C 6.8 g/m*3 20.6 C 16.1 km/h
454 30-05-2020 13:45:00 20.4 C 6.55 g/m*3 20.4 C 22.5 km/h
455 30-05-2020 13:50:00 20.4 C 6.72 g/m*3 20.4 C 12.9 km/h
456 30-05-2020 13:55:00 20.5 C 6.94 g/m*3 20.5 C 8.1 km/h
457 30-05-2020 14:00:00 20.6 C 6.8 g/m*3 20.6 C 9.7 km/h
458 30-05-2020 14:05:00 20.7 C 6.66 g/m*3 20.7 C 14.5 km/h
459 30-05-2020 14:10:00 20.9 C 6.56 g/m*3 20.9 C 19.3 km/h
460 30-05-2020 14:15:00 20.9 C 6.56 g/m*3 20.9 C 17.7 km/h
461 30-05-2020 14:20:00 20.9 C 6.56 g/m*3 20.9 C 20.9 km/h
462 30-05-2020 14:25:00 20.9 C 6.74 g/m*3 20.9 C 20.9 km/h
463 30-05-2020 14:30:00 21 C 6.78 g/m*3 21 C 17.7 km/h
464 30-05-2020 14:35:00 21.2 C 6.86 g/m*3 21.2 C 17.7 km/h
465 30-05-2020 14:40:00 21.3 C 6.9 g/m*3 21.3 C 12.9 km/h
466 30-05-2020 14:45:00 21.4 C 6.94 g/m*3 21.4 C 12.9 km/h
467 30-05-2020 14:50:00 21.6 C 6.83 g/m*3 21.6 C 12.9 km/h
468 30-05-2020 14:55:00 21.8 C 6.91 g/m*3 21.8 C 17.7 km/h
469 30-05-2020 15:00:00 21.8 C 6.91 g/m*3 21.8 C 22.5 km/h
470 30-05-2020 15:05:00 21.8 C 6.72 g/m*3 21.8 C 16.1 km/h
471 30-05-2020 15:10:00 21.9 C 6.75 g/m*3 21.9 C 22.5 km/h
472 30-05-2020 15:15:00 21.8 C 6.91 g/m*3 21.8 C 16.1 km/h
473 30-05-2020 15:20:00 21.9 C 6.95 g/m*3 21.9 C 11.3 km/h
474 30-05-2020 15:25:00 22.3 C 7.31 g/m*3 22.3 C 16.1 km/h
475 30-05-2020 15:30:00 22.6 C 7.03 g/m*3 22.6 C 19.3 km/h
Sensor: Nr:Datum:Temp:Abs-Feuchte:Windchill:Wind:
Aussen-T/F 476 30-05-2020 15:35:00 22.2 C 6.87 g/m*3 22.2 C 17.7 km/h
477 30-05-2020 15:40:00 22.1 C 7.03 g/m*3 22.1 C 11.3 km/h
478 30-05-2020 15:45:00 22.1 C 7.03 g/m*3 22.1 C 9.7 km/h
479 30-05-2020 15:50:00 21.9 C 7.14 g/m*3 21.9 C 6.4 km/h
480 30-05-2020 15:55:00 22.2 C 7.07 g/m*3 22.2 C 12.9 km/h
481 30-05-2020 16:00:00 22.2 C 7.07 g/m*3 22.2 C 22.5 km/h
482 30-05-2020 16:05:00 22.3 C 7.31 g/m*3 22.3 C 17.7 km/h
483 30-05-2020 16:10:00 22.6 C 7.03 g/m*3 22.6 C 20.9 km/h
484 30-05-2020 16:15:00 22.6 C 7.03 g/m*3 22.6 C 25.7 km/h
485 30-05-2020 16:20:00 22.4 C 6.95 g/m*3 22.4 C 22.5 km/h
486 30-05-2020 16:25:00 22.2 C 7.07 g/m*3 22.2 C 20.9 km/h
487 30-05-2020 16:30:00 22.4 C 6.95 g/m*3 22.4 C 17.7 km/h
488 30-05-2020 16:35:00 22.4 C 6.95 g/m*3 22.4 C 19.3 km/h
489 30-05-2020 16:40:00 22.3 C 7.31 g/m*3 22.3 C 17.7 km/h
490 30-05-2020 16:45:00 22.5 C 6.99 g/m*3 22.5 C 20.9 km/h
491 30-05-2020 16:50:00 22.6 C 7.03 g/m*3 22.6 C 16.1 km/h
492 30-05-2020 16:55:00 22.8 C 6.91 g/m*3 22.8 C 14.5 km/h
493 30-05-2020 17:00:00 22.7 C 6.67 g/m*3 22.7 C 25.7 km/h
494 30-05-2020 17:05:00 22.1 C 6.83 g/m*3 22.1 C 20.9 km/h
495 30-05-2020 17:10:00 22 C 6.99 g/m*3 22 C 8.1 km/h
496 30-05-2020 17:15:00 22.4 C 6.75 g/m*3 22.4 C 19.3 km/h
497 30-05-2020 17:20:00 22.4 C 6.95 g/m*3 22.4 C 14.5 km/h
498 30-05-2020 17:25:00 22.5 C 6.79 g/m*3 22.5 C 17.7 km/h
499 30-05-2020 17:30:00 22.9 C 6.95 g/m*3 22.9 C 16.1 km/h
500 30-05-2020 17:35:00 22.8 C 6.71 g/m*3 22.8 C 16.1 km/h
Sensor: Nr:Datum:Temp:Abs-Feuchte:Windchill:Wind:
Aussen-T/F 501 30-05-2020 17:40:00 22.4 C 6.75 g/m*3 22.4 C 17.7 km/h
502 30-05-2020 17:45:00 22.5 C 6.79 g/m*3 22.5 C 20.9 km/h
503 30-05-2020 17:50:00 22.1 C 6.83 g/m*3 22.1 C 22.5 km/h
504 30-05-2020 17:55:00 21.6 C 6.64 g/m*3 21.6 C 19.3 km/h
505 30-05-2020 18:00:00 21.4 C 6.94 g/m*3 21.4 C 9.7 km/h
506 30-05-2020 18:05:00 22.2 C 7.07 g/m*3 22.2 C 19.3 km/h
507 30-05-2020 18:10:00 22.1 C 6.83 g/m*3 22.1 C 22.5 km/h
508 30-05-2020 18:15:00 21.7 C 7.06 g/m*3 21.7 C 11.3 km/h
509 30-05-2020 18:20:00 21.6 C 7.02 g/m*3 21.6 C 6.4 km/h
510 30-05-2020 18:25:00 21.4 C 6.94 g/m*3 21.4 C 11.3 km/h
511 30-05-2020 18:30:00 21.4 C 7.31 g/m*3 21.4 C 8.1 km/h
512 30-05-2020 18:35:00 21.4 C 7.31 g/m*3 21.4 C 9.7 km/h
513 30-05-2020 18:40:00 21.3 C 7.08 g/m*3 21.3 C 6.4 km/h
514 30-05-2020 18:45:00 21.3 C 6.9 g/m*3 21.3 C 14.5 km/h
515 30-05-2020 18:50:00 21.3 C 7.27 g/m*3 21.3 C 4.8 km/h
516 30-05-2020 18:55:00 21.4 C 7.12 g/m*3 21.4 C 9.7 km/h
517 30-05-2020 19:00:00 21.6 C 7.4 g/m*3 21.6 C 11.3 km/h
518 30-05-2020 19:05:00 21.3 C 8.02 g/m*3 21.3 C 9.7 km/h
519 30-05-2020 19:10:00 21 C 7.88 g/m*3 21 C 12.9 km/h
520 30-05-2020 19:15:00 20.6 C 7.16 g/m*3 20.6 C 14.5 km/h
521 30-05-2020 19:20:00 20.3 C 7.03 g/m*3 20.3 C 14.5 km/h
522 30-05-2020 19:25:00 20.2 C 7.34 g/m*3 20.2 C 3.2 km/h
523 30-05-2020 19:30:00 20.1 C 7.13 g/m*3 20.1 C 6.4 km/h
524 30-05-2020 19:35:00 20 C 7.09 g/m*3 20 C 9.7 km/h
525 30-05-2020 19:40:00 19.9 C 7.39 g/m*3 19.9 C 8.1 km/h
Sensor: Nr:Datum:Temp:Abs-Feuchte:Windchill:Wind:
Aussen-T/F 526 30-05-2020 19:45:00 19.8 C 7.17 g/m*3 19.8 C 0 km/h
527 30-05-2020 19:50:00 19.8 C 7.52 g/m*3 19.8 C 0 km/h
528 30-05-2020 19:55:00 19.6 C 7.09 g/m*3 19.6 C 8.1 km/h
529 30-05-2020 20:00:00 19.6 C 7.26 g/m*3 19.6 C 4.8 km/h
530 30-05-2020 20:05:00 19.7 C 7.13 g/m*3 19.7 C 9.7 km/h
531 30-05-2020 20:10:00 19.8 C 6.83 g/m*3 19.8 C 8.1 km/h
532 30-05-2020 20:15:00 19.9 C 7.22 g/m*3 19.9 C 1.6 km/h
533 30-05-2020 20:20:00 19.9 C 7.22 g/m*3 19.9 C 1.6 km/h
534 30-05-2020 20:25:00 19.9 C 7.04 g/m*3 19.9 C 1.6 km/h
535 30-05-2020 20:30:00 19.7 C 6.96 g/m*3 19.7 C 9.7 km/h
536 30-05-2020 20:35:00 19.5 C 7.55 g/m*3 19.5 C 1.6 km/h
537 30-05-2020 20:40:00 19.3 C 6.97 g/m*3 19.3 C 0 km/h
538 30-05-2020 20:45:00 19.2 C 7.26 g/m*3 19.2 C 1.6 km/h
539 30-05-2020 20:50:00 18.9 C 6.8 g/m*3 18.9 C 1.6 km/h
540 30-05-2020 20:55:00 18.8 C 7.41 g/m*3 18.8 C 4.8 km/h
541 30-05-2020 21:00:00 18.4 C 7.24 g/m*3 18.4 C 3.2 km/h
542 30-05-2020 21:05:00 18.1 C 7.11 g/m*3 18.1 C 4.8 km/h
543 30-05-2020 21:10:00 17.8 C 7.13 g/m*3 17.8 C 1.6 km/h
544 30-05-2020 21:15:00 17.4 C 6.97 g/m*3 17.4 C 0 km/h
545 30-05-2020 21:20:00 17.1 C 6.84 g/m*3 17.1 C 1.6 km/h
546 30-05-2020 21:25:00 16.7 C 6.96 g/m*3 16.7 C 1.6 km/h
547 30-05-2020 21:30:00 16.3 C 6.94 g/m*3 16.3 C 0 km/h
548 30-05-2020 21:35:00 16 C 6.95 g/m*3 16 C 0 km/h
549 30-05-2020 21:40:00 15.7 C 6.82 g/m*3 15.7 C 3.2 km/h
550 30-05-2020 21:45:00 15.4 C 6.96 g/m*3 15.4 C 0 km/h
Sensor: Nr:Datum:Temp:Abs-Feuchte:Windchill:Wind:
Aussen-T/F 551 30-05-2020 21:50:00 15.2 C 6.88 g/m*3 15.2 C 1.6 km/h
552 30-05-2020 21:55:00 15 C 6.92 g/m*3 15 C 1.6 km/h
553 30-05-2020 22:00:00 14.8 C 6.84 g/m*3 14.8 C 0 km/h
554 30-05-2020 22:05:00 14.7 C 6.92 g/m*3 14.7 C 1.6 km/h
555 30-05-2020 22:10:00 14.6 C 7.01 g/m*3 14.6 C 1.6 km/h
556 30-05-2020 22:15:00 14.4 C 6.8 g/m*3 14.4 C 3.2 km/h
557 30-05-2020 22:20:00 14.2 C 6.84 g/m*3 14.2 C 4.8 km/h
558 30-05-2020 22:25:00 14.1 C 6.8 g/m*3 14.1 C 4.8 km/h
559 30-05-2020 22:30:00 13.9 C 6.83 g/m*3 13.9 C 4.8 km/h
560 30-05-2020 22:35:00 13.8 C 6.79 g/m*3 13.8 C 3.2 km/h
561 30-05-2020 22:40:00 13.7 C 6.87 g/m*3 13.7 C 1.6 km/h
562 30-05-2020 22:45:00 13.6 C 6.83 g/m*3 13.6 C 3.2 km/h
563 30-05-2020 22:50:00 13.6 C 6.71 g/m*3 13.6 C 4.8 km/h
564 30-05-2020 22:55:00 13.6 C 6.71 g/m*3 13.6 C 4.8 km/h
565 30-05-2020 23:00:00 13.6 C 6.71 g/m*3 13.6 C 6.4 km/h
566 30-05-2020 23:05:00 13.6 C 6.71 g/m*3 13.6 C 4.8 km/h
567 30-05-2020 23:10:00 13.6 C 6.71 g/m*3 13.6 C 6.4 km/h
568 30-05-2020 23:15:00 13.6 C 6.71 g/m*3 13.6 C 6.4 km/h
569 30-05-2020 23:20:00 13.5 C 6.78 g/m*3 13.5 C 6.4 km/h
570 30-05-2020 23:25:00 13.4 C 6.74 g/m*3 13.4 C 4.8 km/h
571 30-05-2020 23:30:00 13.3 C 6.7 g/m*3 13.3 C 3.2 km/h
572 30-05-2020 23:35:00 13.2 C 6.77 g/m*3 13.2 C 3.2 km/h
573 30-05-2020 23:40:00 13.2 C 6.77 g/m*3 13.2 C 4.8 km/h
574 30-05-2020 23:45:00 13.1 C 6.73 g/m*3 13.1 C 3.2 km/h
575 30-05-2020 23:50:00 13 C 6.8 g/m*3 13 C 3.2 km/h
Sensor: Nr:Datum:Temp:Abs-Feuchte:Windchill:Wind:
Aussen-T/F 576 30-05-2020 23:55:00 12.8 C 6.72 g/m*3 12.8 C 1.6 km/h
577 31-05-2020 00:00:00 12.8 C 6.72 g/m*3 12.8 C 3.2 km/h
578 31-05-2020 00:05:00 12.7 C 6.79 g/m*3 12.7 C 4.8 km/h
579 31-05-2020 00:10:00 12.6 C 6.75 g/m*3 12.6 C 4.8 km/h
580 31-05-2020 00:15:00 12.6 C 6.75 g/m*3 12.6 C 3.2 km/h
581 31-05-2020 00:20:00 12.4 C 6.77 g/m*3 12.4 C 3.2 km/h
582 31-05-2020 00:25:00 12.3 C 6.73 g/m*3 12.3 C 6.4 km/h
583 31-05-2020 00:30:00 12.3 C 6.84 g/m*3 12.3 C 6.4 km/h
584 31-05-2020 00:35:00 12.1 C 6.86 g/m*3 12.1 C 3.2 km/h
585 31-05-2020 00:40:00 11.9 C 6.99 g/m*3 11.9 C 0 km/h
586 31-05-2020 00:45:00 11.7 C 6.9 g/m*3 11.7 C 3.2 km/h
587 31-05-2020 00:50:00 11.5 C 6.92 g/m*3 11.5 C 0 km/h
588 31-05-2020 00:55:00 11.3 C 6.94 g/m*3 11.3 C 0 km/h
589 31-05-2020 01:00:00 11.2 C 6.89 g/m*3 11.2 C 1.6 km/h
590 31-05-2020 01:05:00 11.1 C 6.85 g/m*3 11.1 C 3.2 km/h
591 31-05-2020 01:10:00 10.9 C 6.86 g/m*3 10.9 C 3.2 km/h
592 31-05-2020 01:15:00 10.8 C 6.92 g/m*3 10.8 C 0 km/h
593 31-05-2020 01:20:00 10.7 C 6.97 g/m*3 10.7 C 0 km/h
594 31-05-2020 01:25:00 10.6 C 6.93 g/m*3 10.6 C 1.6 km/h
595 31-05-2020 01:30:00 10.4 C 6.84 g/m*3 10.4 C 0 km/h
596 31-05-2020 01:35:00 10.3 C 6.9 g/m*3 10.3 C 0 km/h
597 31-05-2020 01:40:00 10.3 C 6.9 g/m*3 10.3 C 0 km/h
598 31-05-2020 01:45:00 10.2 C 6.85 g/m*3 10.2 C 0 km/h
599 31-05-2020 01:50:00 10.2 C 6.85 g/m*3 10.2 C 0 km/h
600 31-05-2020 01:55:00 10.1 C 6.9 g/m*3 10.1 C 0 km/h
Sensor: Nr:Datum:Temp:Abs-Feuchte:Windchill:Wind:
Aussen-T/F 601 31-05-2020 02:00:00 10 C 6.86 g/m*3 10 C 0 km/h
602 31-05-2020 02:05:00 9.9 C 6.91 g/m*3 9.9 C 0 km/h
603 31-05-2020 02:10:00 9.8 C 6.87 g/m*3 9.8 C 0 km/h
604 31-05-2020 02:15:00 9.7 C 6.82 g/m*3 9.7 C 0 km/h
605 31-05-2020 02:20:00 9.6 C 6.87 g/m*3 9.6 C 0 km/h
606 31-05-2020 02:25:00 9.4 C 6.87 g/m*3 9.4 C 0 km/h
607 31-05-2020 02:30:00 9.3 C 6.83 g/m*3 9.3 C 0 km/h
608 31-05-2020 02:35:00 9.2 C 6.79 g/m*3 9.2 C 0 km/h
609 31-05-2020 02:40:00 9.1 C 6.83 g/m*3 9.1 C 0 km/h
610 31-05-2020 02:45:00 9.1 C 6.83 g/m*3 9.1 C 0 km/h
611 31-05-2020 02:50:00 9 C 6.79 g/m*3 9 C 0 km/h
612 31-05-2020 02:55:00 8.9 C 6.83 g/m*3 8.9 C 0 km/h
613 31-05-2020 03:00:00 8.8 C 6.79 g/m*3 8.8 C 0 km/h
614 31-05-2020 03:05:00 8.7 C 6.75 g/m*3 8.7 C 0 km/h
615 31-05-2020 03:10:00 8.7 C 6.83 g/m*3 8.7 C 0 km/h
616 31-05-2020 03:15:00 8.6 C 6.79 g/m*3 8.6 C 0 km/h
617 31-05-2020 03:20:00 8.4 C 6.7 g/m*3 8.4 C 0 km/h
618 31-05-2020 03:25:00 8.4 C 6.79 g/m*3 8.4 C 0 km/h
619 31-05-2020 03:30:00 8.3 C 6.74 g/m*3 8.3 C 0 km/h
620 31-05-2020 03:35:00 8.3 C 6.74 g/m*3 8.3 C 0 km/h
621 31-05-2020 03:40:00 8.3 C 6.83 g/m*3 8.3 C 0 km/h
622 31-05-2020 03:45:00 8.4 C 6.96 g/m*3 8.4 C 0 km/h
623 31-05-2020 03:50:00 8.5 C 7 g/m*3 8.5 C 0 km/h
624 31-05-2020 03:55:00 8.6 C 7.05 g/m*3 8.6 C 0 km/h
625 31-05-2020 04:00:00 8.7 C 7.09 g/m*3 8.7 C 0 km/h
Sensor: Nr:Datum:Temp:Abs-Feuchte:Windchill:Wind:
Aussen-T/F 626 31-05-2020 04:05:00 8.8 C 7.14 g/m*3 8.8 C 0 km/h
627 31-05-2020 04:10:00 8.9 C 7.18 g/m*3 8.9 C 0 km/h
628 31-05-2020 04:15:00 9 C 7.23 g/m*3 9 C 0 km/h
629 31-05-2020 04:20:00 9 C 7.23 g/m*3 9 C 0 km/h
630 31-05-2020 04:25:00 9 C 7.23 g/m*3 9 C 0 km/h
631 31-05-2020 04:30:00 9 C 7.14 g/m*3 9 C 0 km/h
632 31-05-2020 04:35:00 8.9 C 7.1 g/m*3 8.9 C 0 km/h
633 31-05-2020 04:40:00 8.9 C 7.1 g/m*3 8.9 C 0 km/h
634 31-05-2020 04:45:00 8.9 C 7.1 g/m*3 8.9 C 0 km/h
635 31-05-2020 04:50:00 8.9 C 7.18 g/m*3 8.9 C 0 km/h
636 31-05-2020 04:55:00 8.8 C 7.14 g/m*3 8.8 C 0 km/h
637 31-05-2020 05:00:00 8.9 C 7.18 g/m*3 8.9 C 0 km/h
638 31-05-2020 05:05:00 8.9 C 7.18 g/m*3 8.9 C 0 km/h
639 31-05-2020 05:10:00 9 C 7.23 g/m*3 9 C 0 km/h
640 31-05-2020 05:15:00 9.1 C 7.36 g/m*3 9.1 C 0 km/h
641 31-05-2020 05:20:00 9.1 C 7.28 g/m*3 9.1 C 0 km/h
642 31-05-2020 05:25:00 9.1 C 7.28 g/m*3 9.1 C 0 km/h
643 31-05-2020 05:30:00 9.2 C 7.32 g/m*3 9.2 C 0 km/h
644 31-05-2020 05:35:00 9.2 C 7.41 g/m*3 9.2 C 0 km/h
645 31-05-2020 05:40:00 9.2 C 7.41 g/m*3 9.2 C 0 km/h
646 31-05-2020 05:45:00 9.2 C 7.32 g/m*3 9.2 C 0 km/h
647 31-05-2020 05:50:00 9.3 C 7.46 g/m*3 9.3 C 0 km/h
648 31-05-2020 05:55:00 9.2 C 7.32 g/m*3 9.2 C 1.6 km/h
649 31-05-2020 06:00:00 9.2 C 7.32 g/m*3 9.2 C 1.6 km/h
650 31-05-2020 06:05:00 9.2 C 7.32 g/m*3 9.2 C 0 km/h
Sensor: Nr:Datum:Temp:Abs-Feuchte:Windchill:Wind:
Aussen-T/F 651 31-05-2020 06:10:00 9 C 7.23 g/m*3 9 C 0 km/h
652 31-05-2020 06:15:00 8.8 C 7.14 g/m*3 8.8 C 0 km/h
653 31-05-2020 06:20:00 8.7 C 7.18 g/m*3 8.7 C 0 km/h
654 31-05-2020 06:25:00 8.6 C 7.13 g/m*3 8.6 C 0 km/h
655 31-05-2020 06:30:00 8.5 C 7.17 g/m*3 8.5 C 0 km/h
656 31-05-2020 06:35:00 8.4 C 7.13 g/m*3 8.4 C 0 km/h
657 31-05-2020 06:40:00 8.4 C 7.13 g/m*3 8.4 C 1.6 km/h
658 31-05-2020 06:45:00 8.3 C 7.16 g/m*3 8.3 C 0 km/h
659 31-05-2020 06:50:00 8.3 C 7.16 g/m*3 8.3 C 0 km/h
660 31-05-2020 06:55:00 8.2 C 7.2 g/m*3 8.2 C 0 km/h
661 31-05-2020 07:00:00 8.2 C 7.2 g/m*3 8.2 C 0 km/h
662 31-05-2020 07:05:00 8.2 C 7.29 g/m*3 8.2 C 0 km/h
663 31-05-2020 07:10:00 8.2 C 7.29 g/m*3 8.2 C 0 km/h
664 31-05-2020 07:15:00 8.2 C 7.29 g/m*3 8.2 C 0 km/h
665 31-05-2020 07:20:00 8.3 C 7.33 g/m*3 8.3 C 0 km/h
666 31-05-2020 07:25:00 8.3 C 7.33 g/m*3 8.3 C 0 km/h
667 31-05-2020 07:30:00 8.3 C 7.42 g/m*3 8.3 C 0 km/h
668 31-05-2020 07:35:00 8.4 C 7.47 g/m*3 8.4 C 0 km/h
669 31-05-2020 07:40:00 8.4 C 7.47 g/m*3 8.4 C 0 km/h
670 31-05-2020 07:45:00 8.6 C 7.65 g/m*3 8.6 C 0 km/h
671 31-05-2020 07:50:00 8.8 C 7.75 g/m*3 8.8 C 0 km/h
672 31-05-2020 07:55:00 8.9 C 7.8 g/m*3 8.9 C 0 km/h
673 31-05-2020 08:00:00 9.1 C 7.9 g/m*3 9.1 C 0 km/h
674 31-05-2020 08:05:00 9.3 C 7.91 g/m*3 9.3 C 1.6 km/h
675 31-05-2020 08:10:00 9.6 C 7.97 g/m*3 9.6 C 0 km/h
Sensor: Nr:Datum:Temp:Abs-Feuchte:Windchill:Wind:
Aussen-T/F 676 31-05-2020 08:15:00 9.8 C 7.98 g/m*3 9.8 C 0 km/h
677 31-05-2020 08:20:00 10.1 C 8.23 g/m*3 10.1 C 0 km/h
678 31-05-2020 08:25:00 10.3 C 8.24 g/m*3 10.3 C 0 km/h
679 31-05-2020 08:30:00 10.5 C 8.24 g/m*3 10.5 C 0 km/h
680 31-05-2020 08:35:00 10.8 C 8.4 g/m*3 10.8 C 0 km/h
681 31-05-2020 08:40:00 11 C 8.51 g/m*3 11 C 0 km/h
682 31-05-2020 08:45:00 11.2 C 8.51 g/m*3 11.2 C 0 km/h
683 31-05-2020 08:50:00 11.3 C 8.47 g/m*3 11.3 C 0 km/h
684 31-05-2020 08:55:00 11.5 C 8.57 g/m*3 11.5 C 0 km/h
685 31-05-2020 09:00:00 11.6 C 8.52 g/m*3 11.6 C 0 km/h
686 31-05-2020 09:05:00 11.8 C 8.63 g/m*3 11.8 C 0 km/h
687 31-05-2020 09:10:00 12 C 8.63 g/m*3 12 C 0 km/h
688 31-05-2020 09:15:00 12.2 C 8.63 g/m*3 12.2 C 0 km/h
689 31-05-2020 09:20:00 12.4 C 8.74 g/m*3 12.4 C 0 km/h
690 31-05-2020 09:25:00 12.6 C 8.85 g/m*3 12.6 C 0 km/h
691 31-05-2020 09:30:00 12.7 C 8.91 g/m*3 12.7 C 0 km/h
692 31-05-2020 09:35:00 12.8 C 8.4 g/m*3 12.8 C 0 km/h
693 31-05-2020 09:40:00 13.2 C 8.27 g/m*3 13.2 C 8.1 km/h
694 31-05-2020 09:45:00 13.6 C 8.24 g/m*3 13.6 C 8.1 km/h
695 31-05-2020 09:50:00 14.1 C 8.25 g/m*3 14.1 C 6.4 km/h
696 31-05-2020 09:55:00 14.6 C 8.26 g/m*3 14.6 C 6.4 km/h
697 31-05-2020 10:00:00 14.9 C 8.16 g/m*3 14.9 C 9.7 km/h
698 31-05-2020 10:05:00 15.3 C 7.84 g/m*3 15.3 C 16.1 km/h
699 31-05-2020 10:10:00 15.5 C 7.93 g/m*3 15.5 C 3.2 km/h
700 31-05-2020 10:15:00 15.7 C 8.03 g/m*3 15.7 C 4.8 km/h
Sensor: Nr:Datum:Temp:Abs-Feuchte:Windchill:Wind:
Aussen-T/F 701 31-05-2020 10:20:00 16 C 7.63 g/m*3 16 C 11.3 km/h
702 31-05-2020 10:25:00 16.1 C 7.54 g/m*3 16.1 C 14.5 km/h
703 31-05-2020 10:30:00 16.3 C 7.35 g/m*3 16.3 C 14.5 km/h
704 31-05-2020 10:35:00 16.4 C 7.4 g/m*3 16.4 C 12.9 km/h
705 31-05-2020 10:40:00 16.6 C 7.63 g/m*3 16.6 C 14.5 km/h
706 31-05-2020 10:45:00 16.7 C 7.67 g/m*3 16.7 C 4.8 km/h
707 31-05-2020 10:50:00 16.8 C 7.58 g/m*3 16.8 C 11.3 km/h
708 31-05-2020 10:55:00 16.8 C 7.29 g/m*3 16.8 C 12.9 km/h
709 31-05-2020 11:00:00 16.9 C 7.48 g/m*3 16.9 C 11.3 km/h
710 31-05-2020 11:05:00 16.8 C 7.43 g/m*3 16.8 C 8.1 km/h
711 31-05-2020 11:10:00 16.9 C 7.62 g/m*3 16.9 C 11.3 km/h
712 31-05-2020 11:15:00 17.3 C 7.66 g/m*3 17.3 C 11.3 km/h
713 31-05-2020 11:20:00 17.6 C 7.5 g/m*3 17.6 C 12.9 km/h
714 31-05-2020 11:25:00 17.7 C 7.54 g/m*3 17.7 C 12.9 km/h
715 31-05-2020 11:30:00 17.8 C 7.44 g/m*3 17.8 C 16.1 km/h
716 31-05-2020 11:35:00 17.9 C 7.48 g/m*3 17.9 C 16.1 km/h
717 31-05-2020 11:40:00 17.8 C 7.44 g/m*3 17.8 C 11.3 km/h
718 31-05-2020 11:45:00 17.7 C 7.39 g/m*3 17.7 C 20.9 km/h
719 31-05-2020 11:50:00 17.6 C 7.35 g/m*3 17.6 C 12.9 km/h
720 31-05-2020 11:55:00 17.4 C 7.26 g/m*3 17.4 C 12.9 km/h
721 31-05-2020 12:00:00 17.3 C 7.37 g/m*3 17.3 C 9.7 km/h
722 31-05-2020 12:05:00 17.4 C 7.26 g/m*3 17.4 C 12.9 km/h
723 31-05-2020 12:10:00 17.6 C 6.9 g/m*3 17.6 C 9.7 km/h
724 31-05-2020 12:15:00 17.7 C 7.24 g/m*3 17.7 C 14.5 km/h
725 31-05-2020 12:20:00 17.8 C 7.44 g/m*3 17.8 C 8.1 km/h
Sensor: Nr:Datum:Temp:Abs-Feuchte:Windchill:Wind:
Aussen-T/F 726 31-05-2020 12:25:00 17.8 C 7.29 g/m*3 17.8 C 9.7 km/h
727 31-05-2020 12:30:00 17.9 C 7.02 g/m*3 17.9 C 9.7 km/h
728 31-05-2020 12:35:00 17.9 C 7.02 g/m*3 17.9 C 17.7 km/h
729 31-05-2020 12:40:00 17.9 C 7.18 g/m*3 17.9 C 11.3 km/h
730 31-05-2020 12:45:00 18.1 C 7.11 g/m*3 18.1 C 17.7 km/h
731 31-05-2020 12:50:00 18.2 C 6.99 g/m*3 18.2 C 16.1 km/h
732 31-05-2020 12:55:00 18.3 C 7.04 g/m*3 18.3 C 16.1 km/h
733 31-05-2020 13:00:00 18.4 C 7.08 g/m*3 18.4 C 12.9 km/h
734 31-05-2020 13:05:00 18.6 C 7.32 g/m*3 18.6 C 14.5 km/h
735 31-05-2020 13:10:00 18.7 C 7.04 g/m*3 18.7 C 16.1 km/h
736 31-05-2020 13:15:00 18.6 C 6.84 g/m*3 18.6 C 14.5 km/h
737 31-05-2020 13:20:00 18.4 C 6.76 g/m*3 18.4 C 12.9 km/h
738 31-05-2020 13:25:00 18.6 C 6.84 g/m*3 18.6 C 9.7 km/h
739 31-05-2020 13:30:00 18.8 C 6.6 g/m*3 18.8 C 6.4 km/h
740 31-05-2020 13:35:00 18.8 C 6.76 g/m*3 18.8 C 12.9 km/h
741 31-05-2020 13:40:00 19.1 C 6.88 g/m*3 19.1 C 9.7 km/h
742 31-05-2020 13:45:00 19.1 C 6.72 g/m*3 19.1 C 16.1 km/h
743 31-05-2020 13:50:00 19.1 C 6.88 g/m*3 19.1 C 12.9 km/h
744 31-05-2020 13:55:00 19.1 C 7.05 g/m*3 19.1 C 14.5 km/h
745 31-05-2020 14:00:00 19.2 C 6.93 g/m*3 19.2 C 14.5 km/h
746 31-05-2020 14:05:00 19.3 C 7.13 g/m*3 19.3 C 11.3 km/h
747 31-05-2020 14:10:00 19.5 C 7.22 g/m*3 19.5 C 12.9 km/h
748 31-05-2020 14:15:00 19.7 C 7.13 g/m*3 19.7 C 17.7 km/h
749 31-05-2020 14:20:00 19.7 C 7.13 g/m*3 19.7 C 19.3 km/h
750 31-05-2020 14:25:00 19.8 C 7.17 g/m*3 19.8 C 22.5 km/h
Sensor: Nr:Datum:Temp:Abs-Feuchte:Windchill:Wind:
Aussen-T/F 751 31-05-2020 14:30:00 19.8 C 7.17 g/m*3 19.8 C 20.9 km/h
752 31-05-2020 14:35:00 19.8 C 7.17 g/m*3 19.8 C 12.9 km/h
753 31-05-2020 14:40:00 19.8 C 7 g/m*3 19.8 C 20.9 km/h
754 31-05-2020 14:45:00 19.8 C 7.17 g/m*3 19.8 C 16.1 km/h
755 31-05-2020 14:50:00 19.9 C 7.39 g/m*3 19.9 C 14.5 km/h
756 31-05-2020 14:55:00 20.1 C 7.3 g/m*3 20.1 C 20.9 km/h
757 31-05-2020 15:00:00 20.3 C 7.74 g/m*3 20.3 C 9.7 km/h
758 31-05-2020 15:05:00 20.4 C 7.25 g/m*3 20.4 C 24.1 km/h
759 31-05-2020 15:10:00 20.4 C 7.43 g/m*3 20.4 C 14.5 km/h
760 31-05-2020 15:15:00 20.6 C 7.7 g/m*3 20.6 C 17.7 km/h
761 31-05-2020 15:20:00 20.6 C 7.87 g/m*3 20.6 C 14.5 km/h
762 31-05-2020 15:25:00 20.8 C 7.79 g/m*3 20.8 C 19.3 km/h
763 31-05-2020 15:30:00 20.9 C 7.47 g/m*3 20.9 C 12.9 km/h
764 31-05-2020 15:35:00 21.1 C 7.55 g/m*3 21.1 C 14.5 km/h
765 31-05-2020 15:40:00 21.2 C 7.97 g/m*3 21.2 C 12.9 km/h
766 31-05-2020 15:45:00 21.3 C 7.83 g/m*3 21.3 C 16.1 km/h
767 31-05-2020 15:50:00 21.4 C 8.06 g/m*3 21.4 C 12.9 km/h
768 31-05-2020 15:55:00 21.6 C 8.16 g/m*3 21.6 C 16.1 km/h
769 31-05-2020 16:00:00 21.4 C 8.06 g/m*3 21.4 C 17.7 km/h
770 31-05-2020 16:05:00 21.3 C 8.02 g/m*3 21.3 C 8.1 km/h
771 31-05-2020 16:10:00 21.4 C 8.25 g/m*3 21.4 C 16.1 km/h
772 31-05-2020 16:15:00 21.4 C 7.69 g/m*3 21.4 C 14.5 km/h
773 31-05-2020 16:20:00 21.3 C 7.64 g/m*3 21.3 C 17.7 km/h
774 31-05-2020 16:25:00 21.2 C 7.78 g/m*3 21.2 C 8.1 km/h
775 31-05-2020 16:30:00 21.4 C 8.25 g/m*3 21.4 C 3.2 km/h
Sensor: Nr:Datum:Temp:Abs-Feuchte:Windchill:Wind:
Aussen-T/F 776 31-05-2020 16:35:00 21.6 C 7.97 g/m*3 21.6 C 16.1 km/h
777 31-05-2020 16:40:00 21.3 C 7.83 g/m*3 21.3 C 19.3 km/h
778 31-05-2020 16:45:00 21.4 C 7.87 g/m*3 21.4 C 16.1 km/h
779 31-05-2020 16:50:00 21.3 C 7.83 g/m*3 21.3 C 19.3 km/h
780 31-05-2020 16:55:00 21.2 C 7.97 g/m*3 21.2 C 17.7 km/h
781 31-05-2020 17:00:00 21.6 C 7.97 g/m*3 21.6 C 22.5 km/h
782 31-05-2020 17:05:00 21.4 C 8.06 g/m*3 21.4 C 20.9 km/h
783 31-05-2020 17:10:00 21.9 C 7.91 g/m*3 21.9 C 12.9 km/h
784 31-05-2020 17:15:00 21.7 C 7.63 g/m*3 21.7 C 19.3 km/h
785 31-05-2020 17:20:00 21.4 C 7.87 g/m*3 21.4 C 19.3 km/h
786 31-05-2020 17:25:00 21.5 C 7.73 g/m*3 21.5 C 17.7 km/h
787 31-05-2020 17:30:00 21.5 C 7.54 g/m*3 21.5 C 14.5 km/h
788 31-05-2020 17:35:00 21.7 C 7.44 g/m*3 21.7 C 19.3 km/h
789 31-05-2020 17:40:00 21.7 C 7.63 g/m*3 21.7 C 14.5 km/h
790 31-05-2020 17:45:00 21.7 C 7.63 g/m*3 21.7 C 6.4 km/h
791 31-05-2020 17:50:00 21.6 C 7.4 g/m*3 21.6 C 8.1 km/h
792 31-05-2020 17:55:00 21.6 C 7.78 g/m*3 21.6 C 9.7 km/h
793 31-05-2020 18:00:00 21.8 C 7.67 g/m*3 21.8 C 12.9 km/h
794 31-05-2020 18:05:00 22.2 C 7.66 g/m*3 22.2 C 12.9 km/h
795 31-05-2020 18:10:00 22.2 C 7.66 g/m*3 22.2 C 9.7 km/h
796 31-05-2020 18:15:00 22.2 C 7.85 g/m*3 22.2 C 9.7 km/h
797 31-05-2020 18:20:00 22.3 C 7.7 g/m*3 22.3 C 14.5 km/h
798 31-05-2020 18:25:00 22.2 C 7.85 g/m*3 22.2 C 19.3 km/h
799 31-05-2020 18:30:00 22.2 C 7.85 g/m*3 22.2 C 8.1 km/h
800 31-05-2020 18:35:00 21.7 C 7.44 g/m*3 21.7 C 19.3 km/h
Sensor: Nr:Datum:Temp:Abs-Feuchte:Windchill:Wind:
Aussen-T/F 801 31-05-2020 18:40:00 21.5 C 7.54 g/m*3 21.5 C 14.5 km/h
802 31-05-2020 18:45:00 21.4 C 7.5 g/m*3 21.4 C 20.9 km/h
803 31-05-2020 18:50:00 21.4 C 7.5 g/m*3 21.4 C 14.5 km/h
804 31-05-2020 18:55:00 21.3 C 7.64 g/m*3 21.3 C 16.1 km/h
805 31-05-2020 19:00:00 21.3 C 7.64 g/m*3 21.3 C 14.5 km/h
806 31-05-2020 19:05:00 21.5 C 7.73 g/m*3 21.5 C 9.7 km/h
807 31-05-2020 19:10:00 21.7 C 7.63 g/m*3 21.7 C 12.9 km/h
808 31-05-2020 19:15:00 21.7 C 7.82 g/m*3 21.7 C 12.9 km/h
809 31-05-2020 19:20:00 21.5 C 7.54 g/m*3 21.5 C 11.3 km/h
810 31-05-2020 19:25:00 21.3 C 7.46 g/m*3 21.3 C 14.5 km/h
811 31-05-2020 19:30:00 21.1 C 7.37 g/m*3 21.1 C 12.9 km/h
812 31-05-2020 19:35:00 21 C 7.51 g/m*3 21 C 12.9 km/h
813 31-05-2020 19:40:00 20.9 C 7.47 g/m*3 20.9 C 9.7 km/h
814 31-05-2020 19:45:00 20.8 C 7.79 g/m*3 20.8 C 8.1 km/h
815 31-05-2020 19:50:00 20.8 C 7.79 g/m*3 20.8 C 8.1 km/h
816 31-05-2020 19:55:00 20.8 C 7.79 g/m*3 20.8 C 9.7 km/h
817 31-05-2020 20:00:00 20.7 C 7.74 g/m*3 20.7 C 11.3 km/h
818 31-05-2020 20:05:00 20.6 C 7.7 g/m*3 20.6 C 12.9 km/h
819 31-05-2020 20:10:00 20.4 C 7.61 g/m*3 20.4 C 14.5 km/h
820 31-05-2020 20:15:00 20.4 C 7.96 g/m*3 20.4 C 8.1 km/h
821 31-05-2020 20:20:00 20.4 C 7.78 g/m*3 20.4 C 4.8 km/h
822 31-05-2020 20:25:00 20.4 C 7.78 g/m*3 20.4 C 6.4 km/h
823 31-05-2020 20:30:00 20.3 C 7.91 g/m*3 20.3 C 4.8 km/h
824 31-05-2020 20:35:00 20.3 C 8.09 g/m*3 20.3 C 1.6 km/h
825 31-05-2020 20:40:00 20.3 C 7.91 g/m*3 20.3 C 6.4 km/h
Sensor: Nr:Datum:Temp:Abs-Feuchte:Windchill:Wind:
Aussen-T/F 826 31-05-2020 20:45:00 20.1 C 8.17 g/m*3 20.1 C 8.1 km/h
827 31-05-2020 20:50:00 19.9 C 7.9 g/m*3 19.9 C 3.2 km/h
828 31-05-2020 20:55:00 19.8 C 8.03 g/m*3 19.8 C 4.8 km/h
829 31-05-2020 21:00:00 19.6 C 8.61 g/m*3 19.6 C 0 km/h
830 31-05-2020 21:05:00 19.3 C 7.96 g/m*3 19.3 C 3.2 km/h
831 31-05-2020 21:10:00 19.1 C 8.52 g/m*3 19.1 C 0 km/h
832 31-05-2020 21:15:00 18.7 C 8.33 g/m*3 18.7 C 3.2 km/h
833 31-05-2020 21:20:00 18.3 C 8.29 g/m*3 18.3 C 4.8 km/h
834 31-05-2020 21:25:00 17.9 C 8.24 g/m*3 17.9 C 0 km/h
835 31-05-2020 21:30:00 17.6 C 8.1 g/m*3 17.6 C 1.6 km/h
836 31-05-2020 21:35:00 17.2 C 8.05 g/m*3 17.2 C 6.4 km/h
837 31-05-2020 21:40:00 16.9 C 8.05 g/m*3 16.9 C 3.2 km/h
838 31-05-2020 21:45:00 16.7 C 7.96 g/m*3 16.7 C 3.2 km/h
839 31-05-2020 21:50:00 16.5 C 8 g/m*3 16.5 C 1.6 km/h
840 31-05-2020 21:55:00 16.3 C 7.91 g/m*3 16.3 C 1.6 km/h
841 31-05-2020 22:00:00 16.1 C 8.09 g/m*3 16.1 C 4.8 km/h
842 31-05-2020 22:05:00 15.9 C 7.99 g/m*3 15.9 C 0 km/h
843 31-05-2020 22:10:00 15.7 C 8.03 g/m*3 15.7 C 1.6 km/h
844 31-05-2020 22:15:00 15.5 C 8.06 g/m*3 15.5 C 1.6 km/h
845 31-05-2020 22:20:00 15.3 C 8.1 g/m*3 15.3 C 0 km/h
846 31-05-2020 22:25:00 15.1 C 8 g/m*3 15.1 C 4.8 km/h
847 31-05-2020 22:30:00 15 C 8.08 g/m*3 15 C 3.2 km/h
848 31-05-2020 22:35:00 14.8 C 7.98 g/m*3 14.8 C 1.6 km/h
849 31-05-2020 22:40:00 14.7 C 7.93 g/m*3 14.7 C 1.6 km/h
850 31-05-2020 22:45:00 14.6 C 8.01 g/m*3 14.6 C 3.2 km/h
Sensor: Nr:Datum:Temp:Abs-Feuchte:Windchill:Wind:
Aussen-T/F 851 31-05-2020 22:50:00 14.4 C 7.91 g/m*3 14.4 C 0 km/h
852 31-05-2020 22:55:00 14.3 C 7.86 g/m*3 14.3 C 1.6 km/h
853 31-05-2020 23:00:00 14.2 C 7.94 g/m*3 14.2 C 3.2 km/h
854 31-05-2020 23:05:00 14.2 C 7.94 g/m*3 14.2 C 0 km/h
855 31-05-2020 23:10:00 14.1 C 7.89 g/m*3 14.1 C 1.6 km/h
856 31-05-2020 23:15:00 14 C 7.84 g/m*3 14 C 1.6 km/h
857 31-05-2020 23:20:00 14 C 7.96 g/m*3 14 C 3.2 km/h
858 31-05-2020 23:25:00 13.9 C 7.91 g/m*3 13.9 C 1.6 km/h
859 31-05-2020 23:30:00 13.8 C 7.98 g/m*3 13.8 C 0 km/h
860 31-05-2020 23:35:00 13.8 C 7.98 g/m*3 13.8 C 0 km/h
861 31-05-2020 23:40:00 13.7 C 7.93 g/m*3 13.7 C 0 km/h
862 31-05-2020 23:45:00 13.7 C 7.93 g/m*3 13.7 C 0 km/h
863 31-05-2020 23:50:00 13.6 C 8 g/m*3 13.6 C 3.2 km/h
864 31-05-2020 23:55:00 13.6 C 8 g/m*3 13.6 C 1.6 km/h

Legende:
   Min
   Max


Maximal/Minimal-Werte vom 14.04.2020 - 16.05.2020

Sensor Min Max Avg
Temp
(Aussen-T/F)
-0.1 °C
15-04-2020  06:55:00
26.2 °C
17-04-2020  18:05:00
11.98 °C

Die Daten stammen von einer Davis Vantage Pro 2 Wetter-Station und werden unter Linux mit der Software wview2wettercgi und aufbereitet. Alle Angaben erfolgen ohne Gewähr für ihre Vollständigkeit oder Richtigkeit.
Kontakt: Rainer Krienke krienke@uni-koblenz.de . Meine Webseiten an der Uni Koblenz oder privat.
Version: $Revision: 0.78 $